Time;durP1;ratioP1;P1;durP2;ratioP2;P2;SDS_P1;SDS_P2;PMS_P1;PMS_P2;Temp;Humidity;BMP_temperature;BMP_pressure;BME280_temperature;BME280_humidity;BME280_pressure;Samples;Min_cycle;Max_cycle;Signal;HPM_P1;HPM_P2
2023/05/21 00:01:49;;;;;;;;;15.00;14.67;;;;;17.61;55.46;101138.63;4938559;28;54024;-74
2023/05/21 00:04:14;;;;;;;;;14.33;14.33;;;;;17.51;55.45;101119.22;4957568;28;45704;-75
2023/05/21 00:06:40;;;;;;;;;11.33;11.33;;;;;17.62;55.28;101140.31;4958671;28;45996;-75
2023/05/21 00:09:05;;;;;;;;;13.00;13.00;;;;;17.65;55.42;101150.72;4958379;28;45493;-74
2023/05/21 00:11:31;;;;;;;;;21.00;17.00;;;;;17.33;55.57;101093.47;4958270;28;45403;-76
2023/05/21 00:13:57;;;;;;;;;16.00;15.33;;;;;17.58;55.31;101138.97;4941224;28;45603;-76
2023/05/21 00:16:23;;;;;;;;;17.00;15.67;;;;;17.67;55.38;101143.28;4958389;28;46658;-74
2023/05/21 00:18:49;;;;;;;;;17.67;15.33;;;;;17.67;55.43;101137.91;4957883;28;45315;-73
2023/05/21 00:21:16;;;;;;;;;16.33;15.67;;;;;17.59;55.38;101128.03;4940745;28;45502;-73
2023/05/21 00:23:42;;;;;;;;;19.33;17.67;;;;;17.61;55.92;101127.84;4958856;28;45635;-74
2023/05/21 00:26:08;;;;;;;;;19.00;16.33;;;;;17.52;55.67;101123.56;4958521;28;45529;-74
2023/05/21 00:28:33;;;;;;;;;15.33;15.33;;;;;17.49;56.11;101138.22;4957785;28;45355;-75
2023/05/21 00:30:58;;;;;;;;;20.00;18.00;;;;;17.42;56.47;101118.47;4958708;28;45216;-75
2023/05/21 00:33:27;;;;;;;;;15.67;13.67;;;;;17.42;56.73;101128.34;4941110;28;45347;-75
2023/05/21 00:35:53;;;;;;;;;22.00;20.00;;;;;17.16;56.43;101091.91;4958649;28;46302;-74
2023/05/21 00:38:18;;;;;;;;;16.33;16.00;;;;;17.40;56.72;101125.84;4940295;28;45352;-74
2023/05/21 00:40:43;;;;;;;;;19.67;17.67;;;;;17.37;57.00;101126.19;4958121;28;45417;-73
2023/05/21 00:43:09;;;;;;;;;14.67;13.67;;;;;17.12;57.34;101101.34;4958162;28;45395;-80
2023/05/21 00:45:36;;;;;;;;;20.00;19.00;;;;;17.19;57.66;101129.16;4957853;28;46322;-75
2023/05/21 00:48:03;;;;;;;;;23.33;19.00;;;;;17.14;57.40;101120.81;4957727;28;45305;-75
2023/05/21 00:50:29;;;;;;;;;17.00;16.67;;;;;16.95;57.37;101089.88;4957996;28;45257;-74
2023/05/21 00:52:54;;;;;;;;;18.67;17.33;;;;;17.14;57.56;101120.81;4940619;28;45298;-72
2023/05/21 00:55:20;;;;;;;;;20.00;19.33;;;;;17.09;57.82;101098.19;4940391;28;45756;-74
2023/05/21 00:57:46;;;;;;;;;20.00;17.67;;;;;17.16;57.62;101113.41;4958857;28;45276;-75
2023/05/21 01:00:13;;;;;;;;;22.33;21.33;;;;;17.11;57.40;101107.75;4940927;28;45461;-74
2023/05/21 01:02:38;;;;;;;;;17.33;17.33;;;;;16.58;57.43;101020.75;4940521;28;45519;-75
2023/05/21 01:05:05;;;;;;;;;19.33;18.33;;;;;17.20;57.55;101101.28;4939966;28;47875;-75
2023/05/21 01:07:33;;;;;;;;;22.33;21.67;;;;;16.99;57.37;101075.06;4957502;28;45486;-74
2023/05/21 01:10:01;;;;;;;;;22.67;19.00;;;;;16.56;57.89;101013.88;4957933;28;45288;-75
2023/05/21 01:12:28;;;;;;;;;19.67;18.67;;;;;17.12;57.93;101101.34;4940087;28;45518;-75
2023/05/21 01:14:53;;;;;;;;;17.67;17.67;;;;;17.14;57.50;101103.88;4959415;28;46437;-73
2023/05/21 01:17:23;;;;;;;;;19.00;18.33;;;;;17.13;58.10;101102.19;4961997;28;45371;-73
2023/05/21 01:19:51;;;;;;;;;14.33;14.33;;;;;17.02;58.32;101093.53;4962224;28;45386;-74
2023/05/21 01:22:19;;;;;;;;;22.33;21.33;;;;;16.89;58.35;101093.28;4961132;28;45316;-74
2023/05/21 01:24:46;;;;;;;;;23.33;20.00;;;;;16.97;58.50;101106.63;4960667;28;45731;-79
2023/05/21 01:27:11;;;;;;;;;21.67;20.33;;;;;16.96;58.14;101104.13;4960289;28;45453;-74
2023/05/21 01:29:37;;;;;;;;;22.00;20.00;;;;;16.99;58.39;101117.22;4960642;28;45521;-74
2023/05/21 01:32:19;;;;;;;;;19.33;19.00;;;;;16.96;58.42;101118.41;4943195;28;45442;-74
2023/05/21 01:34:55;;;;;;;;;23.00;20.67;;;;;16.93;58.63;101112.56;4960595;28;46493;-73
2023/05/21 01:37:30;;;;;;;;;12.00;10.33;;;;;16.80;58.53;101101.53;4960617;28;45422;-73
2023/05/21 01:40:13;;;;;;;;;21.00;19.33;;;;;16.90;58.69;101116.44;4961069;28;45461;-74
2023/05/21 01:42:43;;;;;;;;;21.33;19.67;;;;;16.86;59.06;101116.97;4943522;28;45506;-74
2023/05/21 01:45:09;;;;;;;;;17.00;17.00;;;;;16.79;58.95;101115.97;4942910;28;47494;-73
2023/05/21 01:47:36;;;;;;;;;25.33;22.33;;;;;16.63;58.91;101085.50;4960968;28;45516;-73
2023/05/21 01:50:04;;;;;;;;;21.67;21.00;;;;;16.69;59.07;101090.19;4960868;28;45359;-73
2023/05/21 01:52:29;;;;;;;;;22.67;21.33;;;;;16.71;58.75;101098.91;4943212;28;45338;-74
2023/05/21 01:54:56;;;;;;;;;25.00;25.00;;;;;16.72;59.18;101099.75;4960730;28;46235;-74
2023/05/21 01:57:21;;;;;;;;;23.00;22.00;;;;;16.22;59.74;101032.97;4960711;28;45442;-74
2023/05/21 01:59:47;;;;;;;;;23.67;21.67;;;;;16.41;59.67;101070.97;4960153;28;45388;-73
2023/05/21 02:02:12;;;;;;;;;22.33;20.00;;;;;16.59;59.81;101102.09;4961066;28;45393;-73
2023/05/21 02:04:40;;;;;;;;;25.33;25.33;;;;;16.54;60.00;101102.63;4942730;28;47211;-74
2023/05/21 02:07:06;;;;;;;;;23.00;20.67;;;;;16.39;60.42;101105.19;4960414;28;45363;-75
2023/05/21 02:09:31;;;;;;;;;24.00;22.33;;;;;16.36;60.56;101107.41;4960404;28;45296;-74
2023/05/21 02:11:57;;;;;;;;;23.33;23.33;;;;;16.42;60.54;101122.81;4960585;28;45387;-75
2023/05/21 02:14:24;;;;;;;;;22.67;22.00;;;;;16.47;60.58;101124.97;4943150;28;47341;-73
2023/05/21 02:16:51;;;;;;;;;23.00;22.33;;;;;16.40;60.65;101109.56;4960455;28;45271;-74
2023/05/21 02:19:17;;;;;;;;;27.33;24.33;;;;;16.48;60.18;101119.44;4960457;28;45359;-75
2023/05/21 02:21:42;;;;;;;;;23.67;23.67;;;;;16.39;60.42;101104.34;4943274;28;45485;-75
2023/05/21 02:24:07;;;;;;;;;31.00;26.67;;;;;16.29;60.82;101103.75;4958972;28;45907;-75
2023/05/21 02:26:33;;;;;;;;;29.33;22.33;;;;;16.23;60.74;101097.22;4959397;28;45515;-76
2023/05/21 02:28:58;;;;;;;;;26.67;24.00;;;;;16.09;61.00;101085.34;4959928;28;45241;-76
2023/05/21 02:31:23;;;;;;;;;27.33;23.67;;;;;16.26;61.12;101112.13;4942632;28;45597;-73
2023/05/21 02:33:49;;;;;;;;;24.67;21.67;;;;;16.28;61.00;101110.13;4960052;28;45867;-74
2023/05/21 02:36:17;;;;;;;;;29.00;26.33;;;;;16.28;60.58;101094.84;4959993;28;45365;-75
2023/05/21 02:38:43;;;;;;;;;25.33;19.67;;;;;16.31;60.88;101093.66;4960078;28;45516;-74
2023/05/21 02:41:12;;;;;;;;;25.00;24.33;;;;;16.38;60.89;101100.84;4963137;28;45272;-74
2023/05/21 02:43:38;;;;;;;;;26.67;21.67;;;;;16.06;60.23;101042.78;4960102;28;45789;-77
2023/05/21 02:46:05;;;;;;;;;25.67;24.00;;;;;16.50;60.70;101117.41;4959806;28;45469;-73
2023/05/21 02:48:30;;;;;;;;;26.67;25.33;;;;;16.45;60.19;101108.22;4959940;28;45446;-75
2023/05/21 02:50:56;;;;;;;;;23.00;21.67;;;;;16.51;60.53;101124.47;4941884;28;49988;-74
2023/05/21 02:53:21;;;;;;;;;23.00;22.67;;;;;16.50;60.26;101101.31;4941893;28;46224;-75
2023/05/21 02:55:46;;;;;;;;;22.33;21.67;;;;;16.42;59.98;101093.31;4959245;28;51755;-74
2023/05/21 02:58:13;;;;;;;;;25.00;24.00;;;;;16.41;60.48;101092.44;4959743;28;45511;-75
2023/05/21 03:00:39;;;;;;;;;26.00;26.00;;;;;15.83;60.62;101012.34;4942357;28;45587;-74
2023/05/21 03:03:04;;;;;;;;;26.67;25.67;;;;;15.96;60.61;101039.44;4959453;28;45506;-73
2023/05/21 03:05:30;;;;;;;;;24.67;22.67;;;;;16.16;60.87;101073.91;4960024;28;50359;-76
2023/05/21 03:07:55;;;;;;;;;31.67;27.00;;;;;16.17;60.86;101081.78;4959801;28;45269;-74
2023/05/21 03:10:21;;;;;;;;;27.67;27.67;;;;;16.31;61.40;101109.75;4942517;28;45434;-74
2023/05/21 03:12:46;;;;;;;;;23.00;22.00;;;;;15.90;60.88;101044.66;4959017;28;45583;-76
2023/05/21 03:15:14;;;;;;;;;32.67;28.67;;;;;16.27;61.31;101116.50;4959055;28;45250;-75
2023/05/21 03:17:43;;;;;;;;;24.00;23.67;;;;;16.05;61.38;101093.91;4959358;28;45520;-75
2023/05/21 03:20:14;;;;;;;;;28.33;26.33;;;;;16.06;61.33;101088.38;4959231;28;45546;-74
2023/05/21 03:22:40;;;;;;;;;28.67;27.00;;;;;16.10;61.76;101116.53;4959694;28;46206;-75
2023/05/21 03:25:05;;;;;;;;;33.00;26.00;;;;;16.12;61.67;101119.88;4958421;28;45450;-73
2023/05/21 03:27:30;;;;;;;;;29.67;27.67;;;;;16.03;61.89;101115.53;4958807;28;45398;-75
2023/05/21 03:29:56;;;;;;;;;31.33;27.33;;;;;15.95;61.91;101107.50;4958458;28;53748;-73
2023/05/21 03:32:21;;;;;;;;;26.33;25.33;;;;;15.79;62.06;101094.09;4958784;28;46817;-74
2023/05/21 03:34:47;;;;;;;;;30.33;29.00;;;;;15.95;62.51;101134.31;4941409;28;45671;-75
2023/05/21 03:37:12;;;;;;;;;34.00;28.00;;;;;15.89;62.59;101128.78;4958086;28;45213;-74
2023/05/21 03:39:37;;;;;;;;;31.00;28.67;;;;;15.83;62.58;101111.56;4959097;28;45455;-74
2023/05/21 03:42:03;;;;;;;;;32.33;28.00;;;;;15.72;63.01;101122.59;4958892;28;50297;-76
2023/05/21 03:44:31;;;;;;;;;27.67;26.33;;;;;15.73;62.83;101122.44;4959229;28;45221;-73
2023/05/21 03:46:56;;;;;;;;;34.00;30.33;;;;;15.82;62.79;101140.22;4959397;28;45257;-73
2023/05/21 03:49:22;;;;;;;;;29.00;26.67;;;;;15.74;62.44;101105.34;4958854;28;45499;-74
2023/05/21 03:51:47;;;;;;;;;37.33;33.33;;;;;15.85;62.93;101133.66;4958462;28;45635;-75
2023/05/21 03:54:13;;;;;;;;;31.67;26.67;;;;;15.86;62.58;101129.13;4940968;28;46195;-74
2023/05/21 03:56:38;;;;;;;;;26.00;26.00;;;;;15.87;62.81;101126.28;4958397;28;45318;-73
2023/05/21 03:59:03;;;;;;;;;25.00;25.00;;;;;15.88;62.18;101130.63;4958866;28;45593;-74
2023/05/21 04:01:29;;;;;;;;;27.67;27.67;;;;;15.76;62.60;101113.22;4943552;28;48499;-74
2023/05/21 04:03:54;;;;;;;;;31.33;31.33;;;;;15.83;62.73;101130.31;4958815;28;45442;-74
2023/05/21 04:06:20;;;;;;;;;35.33;30.00;;;;;15.82;62.87;101123.28;4959386;28;45289;-74
2023/05/21 04:08:45;;;;;;;;;31.00;29.67;;;;;15.85;62.78;101139.03;4959360;28;45323;-74
2023/05/21 04:11:11;;;;;;;;;30.33;28.00;;;;;15.87;62.54;101126.28;4959164;28;45612;-75
2023/05/21 04:13:37;;;;;;;;;31.33;27.67;;;;;15.78;62.70;101116.56;4942814;28;58111;-75
2023/05/21 04:16:02;;;;;;;;;33.33;29.00;;;;;15.84;62.64;101128.47;4960899;28;45435;-74
2023/05/21 04:18:28;;;;;;;;;30.67;29.33;;;;;15.95;62.16;101152.25;4942346;28;45700;-74
2023/05/21 04:20:53;;;;;;;;;25.67;23.67;;;;;15.94;62.66;101148.72;4958086;28;47221;-74
2023/05/21 04:23:18;;;;;;;;;34.33;31.67;;;;;15.74;62.49;101125.94;4958059;28;45454;-75
2023/05/21 04:25:44;;;;;;;;;31.00;29.67;;;;;15.76;62.41;101134.66;4958687;28;45599;-75
2023/05/21 04:28:09;;;;;;;;;33.00;29.33;;;;;15.72;62.71;101134.16;4958666;28;45586;-74
2023/05/21 04:30:35;;;;;;;;;32.00;26.33;;;;;15.89;62.50;101160.97;4957797;28;46447;-75
2023/05/21 04:33:03;;;;;;;;;32.33;30.33;;;;;15.73;62.63;101140.34;4957975;28;45181;-74
2023/05/21 04:35:28;;;;;;;;;32.33;31.33;;;;;15.73;63.11;101143.03;4958369;28;45205;-76
2023/05/21 04:37:53;;;;;;;;;29.33;28.33;;;;;15.86;62.91;101156.78;4958046;28;45197;-75
2023/05/21 04:40:23;;;;;;;;;28.00;25.33;;;;;15.34;62.40;101060.59;4940236;28;47338;-75
2023/05/21 04:42:49;;;;;;;;;28.67;26.67;;;;;15.88;62.68;101135.16;4957868;28;45566;-75
2023/05/21 04:45:16;;;;;;;;;33.00;31.67;;;;;15.97;62.34;101163.63;4956649;28;45557;-76
2023/05/21 04:47:42;;;;;;;;;28.67;27.67;;;;;16.02;61.98;101164.81;4941179;28;45205;-75
2023/05/21 04:50:07;;;;;;;;;35.67;33.67;;;;;15.93;62.26;101147.06;4957781;28;45560;-76
2023/05/21 04:52:33;;;;;;;;;26.00;23.00;;;;;15.92;62.01;101150.75;4957862;28;45261;-76
2023/05/21 04:54:59;;;;;;;;;28.33;27.00;;;;;16.06;61.91;101168.84;4957716;28;45268;-75
2023/05/21 04:57:24;;;;;;;;;30.00;27.67;;;;;15.67;61.77;101098.16;4957454;28;45545;-75
2023/05/21 04:59:50;;;;;;;;;26.33;23.67;;;;;16.18;61.62;101176.53;4957264;28;46910;-73
2023/05/21 05:02:15;;;;;;;;;27.33;25.00;;;;;16.15;61.73;101144.66;4957307;28;45685;-74
2023/05/21 05:04:42;;;;;;;;;34.33;32.00;;;;;16.17;61.65;101164.13;4957726;28;45330;-76
2023/05/21 05:07:08;;;;;;;;;30.33;27.00;;;;;16.19;61.59;101168.28;4940555;28;45485;-74
2023/05/21 05:09:33;;;;;;;;;31.33;29.00;;;;;15.21;61.29;100996.81;4957416;28;45562;-75
2023/05/21 05:11:59;;;;;;;;;34.00;30.67;;;;;16.30;61.31;101170.63;4939328;28;54627;-75
2023/05/21 05:14:25;;;;;;;;;33.67;31.33;;;;;16.12;60.88;101125.22;4939945;28;45329;-75
2023/05/21 05:16:50;;;;;;;;;27.00;26.00;;;;;16.36;60.79;101159.22;4957896;28;45403;-73
2023/05/21 05:19:15;;;;;;;;;29.00;27.33;;;;;16.40;60.87;101165.06;4940033;28;46491;-75
2023/05/21 05:21:41;;;;;;;;;37.00;30.33;;;;;16.24;60.57;101144.50;4957868;28;45300;-75
2023/05/21 05:24:06;;;;;;;;;29.67;28.00;;;;;16.29;60.96;101158.22;4958209;28;45425;-73
2023/05/21 05:26:31;;;;;;;;;34.33;32.67;;;;;16.00;60.78;101098.94;4957659;28;45292;-75
2023/05/21 05:28:57;;;;;;;;;30.00;26.33;;;;;16.23;60.79;101117.84;4956942;28;54660;-74
2023/05/21 05:31:22;;;;;;;;;27.67;27.67;;;;;16.04;60.47;101079.66;4956939;28;45249;-75
2023/05/21 05:33:47;;;;;;;;;34.00;30.00;;;;;16.65;60.20;101158.63;4957334;28;45190;-74
2023/05/21 05:36:13;;;;;;;;;37.67;32.67;;;;;16.73;60.01;101164.00;4939904;28;45259;-75
2023/05/21 05:38:39;;;;;;;;;37.00;33.67;;;;;16.84;59.24;101170.84;4956720;28;45347;-75
2023/05/21 05:41:04;;;;;;;;;32.67;30.33;;;;;16.86;59.43;101159.94;4956979;28;45285;-74
2023/05/21 05:43:30;;;;;;;;;29.67;28.00;;;;;16.92;59.14;101169.97;4957263;28;45439;-75
2023/05/21 05:45:55;;;;;;;;;30.67;29.67;;;;;16.68;59.32;101110.00;4958320;28;45870;-75
2023/05/21 05:48:20;;;;;;;;;28.67;27.67;;;;;17.05;58.63;101166.72;4957589;28;46961;-74
2023/05/21 05:50:46;;;;;;;;;33.33;30.00;;;;;17.11;58.84;101147.19;4956322;28;60946;-74
2023/05/21 05:53:14;;;;;;;;;31.67;31.67;;;;;17.10;58.33;101143.69;4956999;28;45453;-73
2023/05/21 05:55:40;;;;;;;;;35.67;33.00;;;;;17.16;58.41;101145.66;4956958;28;45343;-73
2023/05/21 05:58:05;;;;;;;;;36.00;30.00;;;;;17.19;57.94;101139.91;4956381;28;46839;-75
2023/05/21 06:00:31;;;;;;;;;30.00;29.00;;;;;17.06;58.00;101125.41;4957154;28;45199;-72
2023/05/21 06:02:56;;;;;;;;;28.00;25.33;;;;;17.26;57.86;101154.34;4959638;28;45331;-73
2023/05/21 06:05:22;;;;;;;;;33.33;31.00;;;;;17.55;57.33;101160.84;4942590;28;45579;-73
2023/05/21 06:07:47;;;;;;;;;32.67;31.00;;;;;17.70;57.14;101161.78;4959265;28;46494;-75
2023/05/21 06:10:12;;;;;;;;;35.00;33.00;;;;;17.82;56.33;101135.28;4959649;28;45537;-74
2023/05/21 06:12:38;;;;;;;;;29.00;26.33;;;;;18.07;55.62;101147.50;4959810;28;45216;-74
2023/05/21 06:15:04;;;;;;;;;33.00;29.67;;;;;18.20;55.52;101134.22;4959382;28;45563;-75
2023/05/21 06:17:30;;;;;;;;;33.00;31.33;;;;;18.65;54.06;101150.44;4942020;28;47534;-74
2023/05/21 06:19:56;;;;;;;;;37.33;32.00;;;;;18.77;53.16;101135.47;4942351;28;45427;-73
2023/05/21 06:22:21;;;;;;;;;28.00;27.00;;;;;19.01;52.49;101137.81;4959788;28;45359;-73
2023/05/21 06:24:46;;;;;;;;;30.33;28.67;;;;;19.35;52.32;101157.91;4960110;28;45379;-72
2023/05/21 06:27:12;;;;;;;;;27.33;27.33;;;;;19.47;51.96;101147.47;4959787;28;45461;-73
2023/05/21 06:29:39;;;;;;;;;30.67;28.00;;;;;19.65;50.66;101162.19;4941647;28;55254;-73
2023/05/21 06:32:06;;;;;;;;;31.33;26.67;;;;;19.80;51.22;101167.50;4959082;28;45450;-74
2023/05/21 06:34:31;;;;;;;;;33.67;31.00;;;;;19.89;50.38;101144.75;4959936;28;45502;-75
2023/05/21 06:36:56;;;;;;;;;24.00;23.33;;;;;19.95;49.71;101135.03;4941480;28;47399;-74
2023/05/21 06:39:23;;;;;;;;;30.33;26.67;;;;;19.98;49.45;101102.25;4960155;28;45237;-74
2023/05/21 06:41:48;;;;;;;;;32.67;31.33;;;;;20.53;48.53;101160.81;4943205;28;45458;-75
2023/05/21 06:44:15;;;;;;;;;30.33;28.33;;;;;20.22;48.05;101076.66;4960717;28;45270;-75
2023/05/21 06:46:41;;;;;;;;;30.00;29.67;;;;;19.96;47.79;101021.50;4943608;28;47815;-75
2023/05/21 06:49:06;;;;;;;;;31.33;27.67;;;;;20.80;47.48;101132.06;4944981;28;45446;-74
2023/05/21 06:51:32;;;;;;;;;25.67;23.67;;;;;20.92;47.74;101167.47;4942752;28;45564;-76
2023/05/21 06:53:57;;;;;;;;;26.00;25.00;;;;;20.82;47.09;101129.16;4960214;28;45440;-74
2023/05/21 06:56:23;;;;;;;;;28.33;27.33;;;;;21.07;46.96;101151.94;4959056;28;45764;-75
2023/05/21 06:58:48;;;;;;;;;28.67;25.67;;;;;21.28;46.44;101136.63;4942238;28;45372;-74
2023/05/21 07:01:15;;;;;;;;;28.33;26.00;;;;;21.78;45.75;101159.56;4942050;28;45556;-76
2023/05/21 07:03:40;;;;;;;;;27.00;25.67;;;;;22.15;44.17;101150.00;4959889;28;45297;-75
2023/05/21 07:06:06;;;;;;;;;29.00;25.67;;;;;22.48;44.13;101149.97;4941141;28;47165;-76
2023/05/21 07:08:31;;;;;;;;;25.00;24.33;;;;;22.68;43.06;101161.59;4951330;28;45189;-75
2023/05/21 07:10:57;;;;;;;;;18.00;18.00;;;;;22.67;42.87;101143.66;4958563;28;45403;-74
2023/05/21 07:13:22;;;;;;;;;28.67;27.33;;;;;22.71;42.57;101131.34;4957683;28;45545;-74
2023/05/21 07:15:47;;;;;;;;;23.33;20.00;;;;;22.91;42.81;101152.16;4958751;28;45574;-74
2023/05/21 07:18:13;;;;;;;;;26.33;26.33;;;;;23.28;42.16;101166.78;4941901;28;45477;-74
2023/05/21 07:20:38;;;;;;;;;28.00;27.00;;;;;22.83;41.43;101068.34;4958136;28;54644;-73
2023/05/21 07:23:04;;;;;;;;;31.00;28.67;;;;;23.36;41.07;101158.38;4941418;28;45442;-74
2023/05/21 07:25:29;;;;;;;;;29.00;26.67;;;;;23.04;40.81;101100.56;4958324;28;47810;-76
2023/05/21 07:27:55;;;;;;;;;28.33;26.33;;;;;23.45;41.21;101150.81;4958484;28;45379;-73
2023/05/21 07:30:20;;;;;;;;;26.67;25.33;;;;;23.59;40.53;101176.81;4958536;28;45323;-74
2023/05/21 07:32:45;;;;;;;;;31.00;29.00;;;;;23.50;40.55;101164.56;4959152;28;45445;-74
2023/05/21 07:35:11;;;;;;;;;27.33;25.33;;;;;23.69;40.39;101166.34;4958076;28;46490;-78
2023/05/21 07:37:36;;;;;;;;;33.33;30.33;;;;;23.24;40.21;101074.16;4958584;28;45572;-75
2023/05/21 07:40:02;;;;;;;;;28.67;28.67;;;;;24.00;39.63;101148.31;4957618;28;54340;-73
2023/05/21 07:42:29;;;;;;;;;23.33;23.33;;;;;24.35;39.42;101168.50;4958391;28;45462;-74
2023/05/21 07:44:55;;;;;;;;;30.33;29.00;;;;;24.71;38.07;101166.88;4940249;28;46848;-73
2023/05/21 07:47:20;;;;;;;;;32.00;30.33;;;;;24.62;38.25;101160.06;4957781;28;45403;-75
2023/05/21 07:49:45;;;;;;;;;26.33;25.00;;;;;24.74;38.74;101161.78;4958507;28;45296;-73
2023/05/21 07:52:10;;;;;;;;;25.67;22.33;;;;;24.99;38.07;101155.41;4941267;28;45382;-74
2023/05/21 07:54:36;;;;;;;;;35.00;29.67;;;;;24.74;37.45;101084.81;4940239;28;48777;-73
2023/05/21 07:57:02;;;;;;;;;23.33;23.33;;;;;25.42;37.47;101137.03;4958035;28;45488;-72
2023/05/21 07:59:27;;;;;;;;;23.00;20.33;;;;;25.97;36.77;101155.06;4939874;28;45430;-73
2023/05/21 08:01:53;;;;;;;;;25.00;20.33;;;;;26.22;35.46;101147.47;4941522;28;45185;-74
2023/05/21 08:04:19;;;;;;;;;24.00;22.33;;;;;26.43;34.95;101147.97;4940178;28;48449;-72
2023/05/21 08:06:44;;;;;;;;;25.67;23.00;;;;;26.41;34.82;101163.75;4940170;28;45527;-73
2023/05/21 08:09:11;;;;;;;;;19.67;18.00;;;;;26.30;35.13;101155.31;4958042;28;45550;-71
2023/05/21 08:11:36;;;;;;;;;22.33;22.33;;;;;26.22;34.76;101130.28;4957581;28;45367;-74
2023/05/21 08:14:01;;;;;;;;;24.67;23.67;;;;;26.42;34.26;101146.31;4957586;28;46080;-70
2023/05/21 08:16:27;;;;;;;;;23.67;21.67;;;;;26.66;34.50;101137.03;4955460;28;45414;-71
2023/05/21 08:18:52;;;;;;;;;19.00;19.00;;;;;26.88;34.47;101113.50;4939583;28;45745;-71
2023/05/21 08:21:18;;;;;;;;;22.67;21.67;;;;;27.12;33.14;101143.44;4957669;28;45443;-75
2023/05/21 08:23:43;;;;;;;;;16.33;16.33;;;;;27.16;33.74;101144.59;4957149;28;45620;-78
2023/05/21 08:26:09;;;;;;;;;19.33;19.33;;;;;27.03;33.83;101131.25;4940268;28;46489;-71
2023/05/21 08:28:38;;;;;;;;;20.67;19.00;;;;;26.83;33.38;101107.94;4953683;28;45580;-73
2023/05/21 08:31:03;;;;;;;;;18.00;18.00;;;;;26.73;33.61;101126.81;4958050;28;45268;-74
2023/05/21 08:33:29;;;;;;;;;23.67;21.67;;;;;26.73;33.86;101126.81;4956896;28;45617;-72
2023/05/21 08:35:54;;;;;;;;;17.33;16.67;;;;;26.57;34.29;101117.47;4955682;28;45316;-75
2023/05/21 08:38:20;;;;;;;;;16.67;16.33;;;;;26.56;34.00;101109.53;4939152;28;45486;-72
2023/05/21 08:40:46;;;;;;;;;15.00;15.00;;;;;26.87;33.43;101135.56;4937719;28;45269;-71
2023/05/21 08:43:15;;;;;;;;;16.00;16.00;;;;;26.94;33.08;101133.50;4939418;28;47181;-80
2023/05/21 08:45:43;;;;;;;;;16.00;16.00;;;;;26.84;33.51;101130.59;4956290;28;45289;-73
2023/05/21 08:48:13;;;;;;;;;16.33;16.33;;;;;26.85;33.48;101124.91;4939338;28;45515;-73
2023/05/21 08:50:39;;;;;;;;;16.67;15.33;;;;;26.94;33.28;101138.97;4957455;28;45506;-75
2023/05/21 08:53:05;;;;;;;;;16.00;16.00;;;;;26.89;33.73;101131.50;4957163;28;45659;-72
2023/05/21 08:55:31;;;;;;;;;16.00;16.00;;;;;27.05;33.23;101110.03;4956816;28;54841;-74
2023/05/21 08:57:56;;;;;;;;;15.67;15.67;;;;;26.91;32.14;101036.59;4939765;28;45418;-73
2023/05/21 09:00:23;;;;;;;;;14.67;14.67;;;;;27.24;31.62;101106.00;4939215;28;45431;-74
2023/05/21 09:02:49;;;;;;;;;14.00;13.33;;;;;27.02;31.83;101064.09;4938698;28;47806;-75
2023/05/21 09:05:16;;;;;;;;;13.00;13.00;;;;;27.33;32.08;101134.56;4939221;28;45637;-73
2023/05/21 09:08:14;;;;;;;;;13.67;13.67;;;;;27.88;31.78;101118.31;4939594;28;45426;-76
2023/05/21 09:10:45;;;;;;;;;17.33;14.67;;;;;28.35;29.83;101106.16;4940424;28;45422;-76
2023/05/21 09:13:11;;;;;;;;;13.33;12.67;;;;;28.60;30.15;101108.41;4956035;28;45751;-75
2023/05/21 09:15:36;;;;;;;;;12.33;12.33;;;;;29.10;29.82;101127.34;4940089;28;45406;-76
2023/05/21 09:18:02;;;;;;;;;11.67;11.67;;;;;29.77;28.12;101128.81;4937306;28;45720;-74
2023/05/21 09:20:27;;;;;;;;;13.00;13.00;;;;;29.96;27.75;101119.91;4938480;28;45546;-71
2023/05/21 09:22:54;;;;;;;;;15.00;14.00;;;;;30.44;27.66;101112.56;4953705;28;47841;-76
2023/05/21 09:25:28;;;;;;;;;11.00;11.00;;;;;30.62;27.10;101126.91;4939316;28;45566;-78
2023/05/21 09:27:57;;;;;;;;;13.00;13.00;;;;;30.71;27.39;101128.06;4957137;28;45574;-76
2023/05/21 09:30:22;;;;;;;;;15.67;15.00;;;;;30.70;27.28;101113.53;4957217;28;45601;-77
2023/05/21 09:32:55;;;;;;;;;15.33;15.33;;;;;30.59;27.43;101133.75;4955832;28;45962;-78
2023/05/21 09:35:21;;;;;;;;;22.00;18.67;;;;;30.09;27.68;101106.88;4958468;28;45454;-78
2023/05/21 09:37:48;;;;;;;;;18.00;16.33;;;;;29.83;28.20;101042.78;4944512;28;45503;-77
2023/05/21 09:40:22;;;;;;;;;14.00;14.00;;;;;30.39;27.67;101115.25;4954858;28;45545;-77
2023/05/21 09:42:49;;;;;;;;;14.33;14.33;;;;;30.82;27.29;101107.78;4946527;28;48736;-78
2023/05/21 09:45:19;;;;;;;;;17.00;15.67;;;;;30.72;27.39;101110.50;4954721;28;45336;-80
2023/05/21 09:47:46;;;;;;;;;17.33;16.33;;;;;30.04;28.15;101084.91;4961435;28;46199;-78
2023/05/21 09:50:19;;;;;;;;;18.67;17.00;;;;;30.14;28.04;101112.38;4943972;28;45588;-78
2023/05/21 09:52:45;;;;;;;;;19.33;16.67;;;;;29.61;28.29;101090.31;4942346;28;48043;-76
2023/05/21 09:55:11;;;;;;;;;16.33;16.33;;;;;29.93;28.07;101112.22;4961774;28;45363;-76
2023/05/21 09:57:41;;;;;;;;;20.67;19.33;;;;;29.63;28.71;101095.53;4960684;28;45247;-78
2023/05/21 10:00:09;;;;;;;;;22.33;19.33;;;;;28.64;29.19;101036.53;4961741;28;45368;-78
2023/05/21 10:02:36;;;;;;;;;22.00;19.67;;;;;28.33;30.61;101081.81;4942768;28;47010;-77
2023/05/21 10:05:07;;;;;;;;;23.67;21.00;;;;;28.02;31.60;101096.09;4960211;28;45342;-78
2023/05/21 10:07:35;;;;;;;;;21.67;20.00;;;;;27.47;32.58;101100.41;4960609;28;45592;-77
2023/05/21 10:10:03;;;;;;;;;23.33;21.67;;;;;26.77;33.21;101064.41;4943258;28;45469;-77
2023/05/21 10:12:31;;;;;;;;;18.00;16.50;;;;;26.47;34.04;101087.28;4943542;28;48257;-78
2023/05/21 10:15:03;;;;;;;;;17.33;17.33;;;;;26.40;34.44;101093.94;4942914;28;46221;-77
2023/05/21 10:17:29;;;;;;;;;16.00;16.00;;;;;26.07;34.52;101092.66;4943362;28;45617;-78
2023/05/21 10:20:00;;;;;;;;;18.33;18.33;;;;;25.88;34.69;101097.38;4944858;28;45495;-75
2023/05/21 10:22:26;;;;;;;;;17.00;16.00;;;;;25.38;35.21;101058.81;4942035;28;48146;-78
2023/05/21 10:24:52;;;;;;;;;21.33;19.33;;;;;25.15;35.71;101097.69;4960104;28;45537;-76
2023/05/21 10:27:18;;;;;;;;;19.00;19.00;;;;;24.93;36.23;101105.50;4942030;28;45245;-77
2023/05/21 10:29:44;;;;;;;;;18.00;16.33;;;;;24.17;37.10;101032.59;4959881;28;45250;-79
2023/05/21 10:32:15;;;;;;;;;18.67;17.00;;;;;24.49;37.46;101099.34;4960798;28;45474;-76
2023/05/21 10:34:45;;;;;;;;;18.33;18.33;;;;;24.13;38.02;101089.28;4952722;28;45505;-77
2023/05/21 10:37:12;;;;;;;;;16.00;13.67;;;;;24.00;38.18;101085.84;4964091;28;45320;-77
2023/05/21 10:39:38;;;;;;;;;17.00;17.00;;;;;23.56;38.03;101055.97;4968102;28;45406;-77
2023/05/21 10:42:09;;;;;;;;;14.00;14.00;;;;;23.70;38.27;101089.28;4966786;28;46665;-75
2023/05/21 10:45:02;;;;;;;;;16.67;15.33;;;;;23.78;38.55;101091.69;4966386;28;45430;-77
2023/05/21 10:47:53;;;;;;;;;16.67;15.67;;;;;23.79;38.64;101092.50;4945013;28;45290;-78
2023/05/21 10:50:33;;;;;;;;;24.33;20.33;;;;;23.64;38.89;101088.28;4947153;28;45334;-79
2023/05/21 10:53:03;;;;;;;;;17.00;14.33;;;;;23.48;39.73;101090.66;4948508;28;48064;-77
2023/05/21 10:55:47;;;;;;;;;17.67;16.00;;;;;23.34;39.15;101079.91;4956899;28;45418;-78
2023/05/21 10:58:20;;;;;;;;;23.67;17.00;;;;;23.11;39.71;101084.25;4956288;28;45359;-80
2023/05/21 11:00:45;;;;;;;;;16.00;16.00;;;;;23.11;39.84;101074.22;4943995;28;45590;-75
2023/05/21 11:03:12;;;;;;;;;18.33;17.67;;;;;23.12;40.44;101092.16;4959257;28;45860;-80
2023/05/21 11:05:40;;;;;;;;;23.33;20.00;;;;;23.06;40.44;101082.19;4941864;28;45810;-77
2023/05/21 11:08:19;;;;;;;;;18.33;18.33;;;;;22.90;40.78;101088.13;4958877;28;45503;-79